createdAt,value
2022-09-20T00:03:03.325Z,9.56
2022-09-20T00:08:11.015Z,9.57
2022-09-20T00:13:14.532Z,9.54
2022-09-20T00:18:17.416Z,9.54
2022-09-20T00:23:20.572Z,9.51
2022-09-20T00:28:23.581Z,9.52
2022-09-20T00:33:49.836Z,9.53
2022-09-20T00:39:02.061Z,9.54
2022-09-20T00:44:43.683Z,9.51
2022-09-20T00:49:46.893Z,9.47
2022-09-20T00:54:51.268Z,9.41
2022-09-20T00:59:54.880Z,9.41
2022-09-20T01:04:58.331Z,9.38
2022-09-20T01:10:01.303Z,9.37
2022-09-20T01:15:06.501Z,9.39
2022-09-20T01:20:18.171Z,9.43
2022-09-20T01:25:57.760Z,9.45
2022-09-20T01:31:39.705Z,9.49
2022-09-20T01:36:52.137Z,9.53
2022-09-20T01:42:00.266Z,9.58
2022-09-20T01:47:39.373Z,9.62
2022-09-20T01:53:38.086Z,9.68
2022-09-20T01:59:30.332Z,9.67
2022-09-20T02:05:40.714Z,9.66
2022-09-20T02:11:05.371Z,9.57
2022-09-20T02:16:49.904Z,9.51
2022-09-20T02:22:26.780Z,9.49
2022-09-20T02:28:22.790Z,9.45
2022-09-20T02:33:43.797Z,9.42
2022-09-20T02:39:08.082Z,9.38
2022-09-20T02:44:28.801Z,9.41
2022-09-20T02:50:09.294Z,9.34
2022-09-20T02:55:18.767Z,9.32
2022-09-20T03:00:29.068Z,9.29
2022-09-20T03:06:05.829Z,9.27
2022-09-20T03:11:56.450Z,9.28
2022-09-20T03:17:48.532Z,9.30
2022-09-20T03:23:50.218Z,9.30
2022-09-20T03:29:23.487Z,9.29
2022-09-20T03:35:17.103Z,9.27
2022-09-20T03:40:46.183Z,9.24
2022-09-20T03:46:39.129Z,9.18
2022-09-20T03:51:48.947Z,9.19
2022-09-20T03:57:27.297Z,9.20
2022-09-20T04:03:02.379Z,9.14
2022-09-20T04:08:14.177Z,9.15
2022-09-20T04:14:17.436Z,9.13
2022-09-20T04:19:45.722Z,9.08
2022-09-20T04:25:07.409Z,9.04
2022-09-20T04:30:22.041Z,9.01
2022-09-20T04:35:55.367Z,8.90
2022-09-20T04:41:37.961Z,8.78
2022-09-20T04:47:07.121Z,8.78
2022-09-20T04:52:44.641Z,8.77
2022-09-20T04:58:25.507Z,8.77
2022-09-20T05:04:14.729Z,8.72
2022-09-20T05:09:38.490Z,8.71
2022-09-20T05:14:59.028Z,8.73
2022-09-20T05:20:48.595Z,8.82
2022-09-20T05:26:15.985Z,8.95
2022-09-20T05:31:44.929Z,9.09
2022-09-20T05:37:21.412Z,9.24
2022-09-20T05:42:54.349Z,9.39
2022-09-20T05:48:23.152Z,9.51
2022-09-20T05:53:56.835Z,9.54
2022-09-20T05:59:20.862Z,9.59
2022-09-20T06:04:43.132Z,9.72
2022-09-20T06:10:04.472Z,9.84
2022-09-20T06:15:26.338Z,9.97
2022-09-20T06:20:50.761Z,10.13
2022-09-20T06:26:07.792Z,10.25
2022-09-20T06:31:11.488Z,10.34
2022-09-20T06:37:04.879Z,10.55
2022-09-20T06:42:10.224Z,10.67
2022-09-20T06:47:15.359Z,10.77
2022-09-20T06:52:23.077Z,10.86
2022-09-20T06:57:40.117Z,11.01
2022-09-20T07:02:43.798Z,11.11
2022-09-20T07:07:47.632Z,11.20
2022-09-20T07:12:50.475Z,11.26
2022-09-20T07:17:53.590Z,11.49
2022-09-20T07:22:56.429Z,11.74
2022-09-20T07:27:59.751Z,11.92
2022-09-20T07:33:02.599Z,12.13
2022-09-20T07:38:05.644Z,12.23
2022-09-20T07:43:11.211Z,12.27
2022-09-20T07:48:14.864Z,12.29
2022-09-20T07:53:17.641Z,12.44
2022-09-20T07:58:20.465Z,12.57
2022-09-20T08:03:23.866Z,12.71
2022-09-20T08:08:26.740Z,12.85
2022-09-20T08:18:57.271Z,12.92
2022-09-20T08:24:00.874Z,12.84
2022-09-20T08:29:06.412Z,12.66
2022-09-20T08:34:12.647Z,12.66
2022-09-20T08:45:00.426Z,12.89
2022-09-20T08:50:10.100Z,12.82
2022-09-20T08:55:24.325Z,12.87
2022-09-20T09:00:35.153Z,12.89
2022-09-20T09:05:44.597Z,12.92
2022-09-20T09:10:54.952Z,13.05
2022-09-20T09:16:12.233Z,13.17
2022-09-20T09:21:28.076Z,13.25
2022-09-20T09:26:41.318Z,13.25
2022-09-20T09:31:52.824Z,13.29
2022-09-20T09:36:57.438Z,13.31
2022-09-20T09:42:01.382Z,13.58
2022-09-20T09:47:04.537Z,13.84
2022-09-20T09:52:24.863Z,13.87
2022-09-20T09:58:00.625Z,13.90
2022-09-20T10:03:33.354Z,13.94
2022-09-20T10:09:08.199Z,13.90
2022-09-20T10:14:35.915Z,14.09
2022-09-20T10:20:28.230Z,14.57
2022-09-20T10:25:43.317Z,15.04
2022-09-20T10:31:37.298Z,15.30
2022-09-20T10:36:55.970Z,15.57
2022-09-20T10:42:35.508Z,15.75
2022-09-20T10:48:03.106Z,16.04
2022-09-20T10:53:18.132Z,16.52
2022-09-20T10:59:05.603Z,17.25
2022-09-20T11:04:37.354Z,17.98
2022-09-20T11:09:50.542Z,18.34
2022-09-20T11:15:04.447Z,18.64
2022-09-20T11:20:27.876Z,19.01
2022-09-20T11:25:37.839Z,19.24
2022-09-20T11:31:02.381Z,19.54
2022-09-20T11:36:14.231Z,19.68
2022-09-20T11:41:32.302Z,19.78
2022-09-20T11:47:01.328Z,19.65
2022-09-20T11:52:13.359Z,19.61
2022-09-20T11:57:17.027Z,19.64
2022-09-20T12:02:51.617Z,19.40
2022-09-20T12:07:58.617Z,19.23
2022-09-20T12:13:08.786Z,18.97
2022-09-20T12:18:36.459Z,18.64
2022-09-20T12:23:42.639Z,18.21
2022-09-20T12:28:51.510Z,17.79
2022-09-20T12:34:13.298Z,17.28
2022-09-20T12:39:23.311Z,16.57
2022-09-20T12:44:40.570Z,15.89
2022-09-20T12:50:04.586Z,15.44
2022-09-20T12:55:11.268Z,15.07
2022-09-20T13:00:54.424Z,14.81
2022-09-20T13:06:06.530Z,14.58
2022-09-20T13:11:18.738Z,14.52
2022-09-20T13:16:45.550Z,14.51
2022-09-20T13:22:14.291Z,14.62
2022-09-20T13:27:32.558Z,14.87
2022-09-20T13:32:35.913Z,15.05
2022-09-20T13:38:05.757Z,15.21
2022-09-20T13:43:33.732Z,15.35
2022-09-20T13:48:36.836Z,15.45
2022-09-20T13:53:41.906Z,15.49
2022-09-20T13:58:45.407Z,15.34
2022-09-20T14:03:48.592Z,15.08
2022-09-20T14:08:51.871Z,14.86
2022-09-20T14:14:01.736Z,14.71
2022-09-20T14:19:09.864Z,14.44
2022-09-20T14:24:59.595Z,14.16
2022-09-20T14:30:03.974Z,13.89
2022-09-20T14:35:20.663Z,13.71
2022-09-20T14:40:33.407Z,13.68
2022-09-20T14:45:43.279Z,13.66
2022-09-20T14:51:18.150Z,13.69
2022-09-20T14:56:35.834Z,13.71
2022-09-20T15:01:45.113Z,13.66
2022-09-20T15:06:50.176Z,13.64
2022-09-20T15:12:10.438Z,13.56
2022-09-20T15:17:23.626Z,13.41
2022-09-20T15:22:27.511Z,13.23
2022-09-20T15:27:30.300Z,13.13
2022-09-20T15:32:33.165Z,13.01
2022-09-20T15:37:36.464Z,12.88
2022-09-20T15:42:41.621Z,12.75
2022-09-20T15:47:44.714Z,12.60
2022-09-20T15:52:51.349Z,12.53
2022-09-20T15:57:54.190Z,12.49
2022-09-20T16:02:56.872Z,12.45
2022-09-20T16:07:59.730Z,12.41
2022-09-20T16:13:02.960Z,12.33
2022-09-20T16:18:24.798Z,12.20
2022-09-20T16:23:27.481Z,12.19
2022-09-20T16:28:30.978Z,12.15
2022-09-20T16:33:36.411Z,12.13
2022-09-20T16:38:44.997Z,12.09
2022-09-20T16:43:50.167Z,12.03
2022-09-20T16:48:55.023Z,11.98
2022-09-20T16:53:57.998Z,11.92
2022-09-20T16:59:05.630Z,11.87
2022-09-20T17:04:09.655Z,11.85
2022-09-20T17:09:13.899Z,11.82
2022-09-20T17:14:20.399Z,11.72
2022-09-20T17:19:23.326Z,11.58
2022-09-20T17:24:26.424Z,11.45
2022-09-20T17:29:29.193Z,11.30
2022-09-20T17:34:31.888Z,11.11
2022-09-20T17:39:34.812Z,10.89
2022-09-20T17:44:39.178Z,10.81
2022-09-20T17:49:43.188Z,10.64
2022-09-20T17:54:45.880Z,10.60
2022-09-20T17:59:48.621Z,10.51
2022-09-20T18:04:52.704Z,10.43
2022-09-20T18:09:56.070Z,10.44
2022-09-20T18:14:59.057Z,10.42
2022-09-20T18:20:02.132Z,10.47
2022-09-20T18:25:05.618Z,10.49
2022-09-20T18:30:09.231Z,10.50
2022-09-20T18:35:11.895Z,10.50
2022-09-20T18:40:14.795Z,10.48
2022-09-20T18:45:20.528Z,10.44
2022-09-20T18:50:26.579Z,10.41
2022-09-20T18:55:30.043Z,10.37
2022-09-20T19:00:33.397Z,10.36
2022-09-20T19:05:52.432Z,10.35
2022-09-20T19:11:03.901Z,10.33
2022-09-20T19:16:21.080Z,10.29
2022-09-20T19:21:45.426Z,10.25
2022-09-20T19:26:48.971Z,10.22
2022-09-20T19:31:58.913Z,10.21
2022-09-20T19:37:51.640Z,10.15
2022-09-20T19:43:19.446Z,10.09
2022-09-20T19:48:40.369Z,10.02
2022-09-20T19:53:43.619Z,9.96
2022-09-20T19:58:47.485Z,9.89
2022-09-20T20:03:52.211Z,9.83
2022-09-20T20:09:21.272Z,9.79
2022-09-20T20:14:40.481Z,9.80
2022-09-20T20:20:29.115Z,9.85
2022-09-20T20:25:41.623Z,9.80
2022-09-20T20:30:44.710Z,9.74
2022-09-20T20:35:58.947Z,9.66
2022-09-20T20:41:14.714Z,9.62
2022-09-20T20:46:21.007Z,9.58
2022-09-20T20:51:24.142Z,9.56
2022-09-20T20:56:30.096Z,9.54
2022-09-20T21:01:38.677Z,9.47
2022-09-20T21:06:42.306Z,9.46
2022-09-20T21:11:46.626Z,9.46
2022-09-20T21:16:52.150Z,9.44
2022-09-20T21:21:54.849Z,9.44
2022-09-20T21:26:57.579Z,9.44
2022-09-20T21:32:00.272Z,9.39
2022-09-20T21:37:03.196Z,9.42
2022-09-20T21:42:07.981Z,9.43
2022-09-20T21:47:10.694Z,9.42
2022-09-20T21:52:14.255Z,9.45
2022-09-20T21:57:16.955Z,9.45
2022-09-20T22:02:19.711Z,9.43
2022-09-20T22:07:23.085Z,9.40
2022-09-20T22:12:25.846Z,9.44
2022-09-20T22:17:29.543Z,9.39
2022-09-20T22:22:32.353Z,9.31
2022-09-20T22:27:35.103Z,9.23
2022-09-20T22:32:37.820Z,9.08
2022-09-20T22:37:40.796Z,8.95
2022-09-20T22:42:43.498Z,8.88
2022-09-20T22:47:46.693Z,8.78
2022-09-20T22:52:49.497Z,8.77
2022-09-20T22:57:52.818Z,8.80
2022-09-20T23:03:01.559Z,8.84
2022-09-20T23:08:05.473Z,8.90
2022-09-20T23:13:08.241Z,8.94
2022-09-20T23:18:11.535Z,8.93
2022-09-20T23:23:23.553Z,8.92
2022-09-20T23:28:27.273Z,8.89
2022-09-20T23:33:30.014Z,8.81
2022-09-20T23:38:32.728Z,8.77
2022-09-20T23:43:36.954Z,8.73
2022-09-20T23:48:44.213Z,8.71
2022-09-20T23:53:47.227Z,8.70
2022-09-20T23:58:50.837Z,8.71
